createdAt,value
2018-06-22T00:00:17.391Z,12.2
2018-06-22T00:01:18.754Z,12.4
2018-06-22T00:02:20.134Z,12.3
2018-06-22T00:03:21.492Z,12.3
2018-06-22T00:04:22.856Z,12.2
2018-06-22T00:05:24.223Z,12.2
2018-06-22T00:06:25.573Z,12.3
2018-06-22T00:07:26.939Z,12.3
2018-06-22T00:08:28.297Z,12.2
2018-06-22T00:09:29.670Z,12.2
2018-06-22T00:10:31.029Z,12.2
2018-06-22T00:11:32.387Z,12.1
2018-06-22T00:12:33.739Z,12.2
2018-06-22T00:13:35.104Z,12.2
2018-06-22T00:14:36.454Z,12.1
2018-06-22T00:15:37.817Z,12.1
2018-06-22T00:16:39.176Z,12.1
2018-06-22T00:17:40.545Z,12.1
2018-06-22T00:18:41.905Z,12.0
2018-06-22T00:19:43.258Z,12.0
2018-06-22T00:20:44.614Z,12.0
2018-06-22T00:21:45.969Z,12.0
2018-06-22T00:22:47.325Z,12.0
2018-06-22T00:23:48.684Z,12.0
2018-06-22T00:24:50.063Z,11.9
2018-06-22T00:25:51.427Z,11.9
2018-06-22T00:26:52.782Z,11.9
2018-06-22T00:27:54.141Z,11.9
2018-06-22T00:28:55.501Z,11.9
2018-06-22T00:29:56.855Z,11.9
2018-06-22T00:30:58.215Z,11.9
2018-06-22T00:31:59.569Z,11.9
2018-06-22T00:33:00.924Z,11.8
2018-06-22T00:34:02.279Z,11.7
2018-06-22T00:35:03.635Z,11.7
2018-06-22T00:36:04.993Z,11.7
2018-06-22T00:37:06.356Z,11.7
2018-06-22T00:38:07.723Z,11.7
2018-06-22T00:39:09.073Z,11.7
2018-06-22T00:40:10.438Z,11.7
2018-06-22T00:41:11.788Z,11.6
2018-06-22T00:42:13.150Z,11.7
2018-06-22T00:43:14.513Z,11.6
2018-06-22T00:44:15.874Z,11.6
2018-06-22T00:45:17.241Z,11.6
2018-06-22T00:46:18.588Z,11.7
2018-06-22T00:47:20.409Z,11.6
2018-06-22T00:48:21.779Z,11.6
2018-06-22T00:49:23.125Z,11.7
2018-06-22T00:50:24.494Z,11.6
2018-06-22T00:51:25.860Z,11.6
2018-06-22T00:52:27.235Z,11.6
2018-06-22T00:53:28.595Z,11.6
2018-06-22T00:54:29.960Z,11.7
2018-06-22T00:55:31.325Z,11.6
2018-06-22T00:56:32.673Z,11.6
2018-06-22T00:57:34.034Z,11.7
2018-06-22T00:58:35.379Z,11.7
2018-06-22T00:59:36.734Z,11.7
2018-06-22T01:00:38.093Z,11.6
2018-06-22T01:01:39.465Z,11.6
2018-06-22T01:02:40.818Z,11.7
2018-06-22T01:03:42.190Z,11.6
2018-06-22T01:04:43.529Z,11.6
2018-06-22T01:05:44.884Z,11.6
2018-06-22T01:06:46.231Z,11.6
2018-06-22T01:07:47.599Z,11.6
2018-06-22T01:08:48.903Z,11.7
2018-06-22T01:09:50.261Z,11.6
2018-06-22T01:10:51.620Z,11.6
2018-06-22T01:11:52.976Z,11.6
2018-06-22T01:12:54.333Z,11.6
2018-06-22T01:13:55.685Z,11.6
2018-06-22T01:14:57.040Z,11.6
2018-06-22T01:15:58.419Z,11.6
2018-06-22T01:16:59.771Z,11.6
2018-06-22T01:18:01.131Z,11.6
2018-06-22T01:19:02.500Z,11.6
2018-06-22T01:20:03.850Z,11.6
2018-06-22T01:21:05.208Z,11.6
2018-06-22T01:22:06.559Z,11.5
2018-06-22T01:23:07.911Z,11.5
2018-06-22T01:24:09.264Z,11.5
2018-06-22T01:25:10.622Z,11.5
2018-06-22T01:26:12.010Z,11.4
2018-06-22T01:27:13.320Z,11.5
2018-06-22T01:28:14.684Z,11.5
2018-06-22T01:29:16.043Z,11.5
2018-06-22T01:30:17.409Z,11.4
2018-06-22T01:31:18.754Z,11.5
2018-06-22T01:32:20.150Z,11.5
2018-06-22T01:33:21.504Z,11.5
2018-06-22T01:34:22.851Z,11.4
2018-06-22T01:35:24.198Z,11.5
2018-06-22T01:36:25.564Z,11.5
2018-06-22T01:37:26.921Z,11.5
2018-06-22T01:38:28.286Z,11.6
2018-06-22T01:39:29.640Z,11.5
2018-06-22T01:40:30.996Z,11.4
2018-06-22T01:41:32.351Z,11.4
2018-06-22T01:42:33.715Z,11.5
2018-06-22T01:43:35.074Z,11.5
2018-06-22T01:44:36.428Z,11.5
2018-06-22T01:45:37.791Z,11.5
2018-06-22T01:46:39.156Z,11.5
2018-06-22T01:47:40.505Z,11.5
2018-06-22T01:48:41.870Z,11.5
2018-06-22T01:49:43.235Z,11.5
2018-06-22T01:50:44.603Z,11.5
2018-06-22T01:51:45.970Z,11.5
2018-06-22T01:52:47.321Z,11.5
2018-06-22T01:53:48.673Z,11.5
2018-06-22T01:54:50.034Z,11.5
2018-06-22T01:55:51.397Z,11.5
2018-06-22T01:56:52.750Z,11.5
2018-06-22T01:57:54.109Z,11.5
2018-06-22T01:58:55.454Z,11.5
2018-06-22T01:59:56.815Z,11.4
2018-06-22T02:00:58.175Z,11.4
2018-06-22T02:01:59.536Z,11.4
2018-06-22T02:03:00.896Z,11.4
2018-06-22T02:04:02.269Z,11.4
2018-06-22T02:05:03.615Z,11.4
2018-06-22T02:06:04.969Z,11.4
2018-06-22T02:07:06.338Z,11.4
2018-06-22T02:08:07.690Z,11.3
2018-06-22T02:09:09.044Z,11.4
2018-06-22T02:10:10.406Z,11.4
2018-06-22T02:11:11.752Z,11.4
2018-06-22T02:12:13.111Z,11.4
2018-06-22T02:13:14.472Z,11.4
2018-06-22T02:14:15.837Z,11.4
2018-06-22T02:15:17.195Z,11.3
2018-06-22T02:16:18.541Z,11.3
2018-06-22T02:17:19.914Z,11.3
2018-06-22T02:18:21.284Z,11.3
2018-06-22T02:19:22.645Z,11.3
2018-06-22T02:20:23.996Z,11.3
2018-06-22T02:21:25.354Z,11.3
2018-06-22T02:22:26.720Z,11.2
2018-06-22T02:23:28.073Z,11.2
2018-06-22T02:24:29.422Z,11.2
2018-06-22T02:25:30.777Z,11.2
2018-06-22T02:26:32.129Z,11.2
2018-06-22T02:27:33.489Z,11.2
2018-06-22T02:28:34.844Z,11.2
2018-06-22T02:29:36.217Z,11.1
2018-06-22T02:30:37.565Z,11.1
2018-06-22T02:31:38.974Z,11.1
2018-06-22T02:32:40.279Z,11.1
2018-06-22T02:33:41.628Z,11.0
2018-06-22T02:34:42.990Z,11.1
2018-06-22T02:35:44.369Z,11.1
2018-06-22T02:36:45.725Z,11.1
2018-06-22T02:37:47.082Z,11.1
2018-06-22T02:38:48.434Z,11.1
2018-06-22T02:39:50.460Z,11.0
2018-06-22T02:40:51.820Z,11.1
2018-06-22T02:41:53.183Z,11.1
2018-06-22T02:42:54.529Z,11.1
2018-06-22T02:43:55.890Z,11.1
2018-06-22T02:44:57.259Z,11.0
2018-06-22T02:45:58.611Z,11.0
2018-06-22T02:46:59.964Z,11.0
2018-06-22T02:48:01.313Z,11.0
2018-06-22T02:49:02.672Z,10.9
2018-06-22T02:50:04.043Z,11.0
2018-06-22T02:51:05.391Z,10.9
2018-06-22T02:52:06.750Z,10.9
2018-06-22T02:53:08.106Z,10.9
2018-06-22T02:54:09.460Z,10.9
2018-06-22T02:55:10.832Z,10.9
2018-06-22T02:56:12.177Z,10.9
2018-06-22T02:57:13.542Z,10.9
2018-06-22T02:58:14.900Z,10.9
2018-06-22T02:59:16.253Z,10.9
2018-06-22T03:00:17.611Z,10.8
2018-06-22T03:01:18.971Z,10.8
2018-06-22T03:02:20.341Z,10.9
2018-06-22T03:03:21.691Z,10.9
2018-06-22T03:04:23.052Z,10.8
2018-06-22T03:05:24.422Z,10.9
2018-06-22T03:06:25.777Z,10.8
2018-06-22T03:07:27.120Z,10.9
2018-06-22T03:08:28.482Z,10.8
2018-06-22T03:09:29.844Z,10.8
2018-06-22T03:10:31.205Z,10.8
2018-06-22T03:11:32.562Z,10.8
2018-06-22T03:12:33.921Z,10.9
2018-06-22T03:13:35.278Z,10.8
2018-06-22T03:14:36.633Z,10.8
2018-06-22T03:15:37.991Z,10.8
2018-06-22T03:16:39.360Z,10.8
2018-06-22T03:17:40.717Z,10.8
2018-06-22T03:18:42.081Z,10.7
2018-06-22T03:19:43.437Z,10.8
2018-06-22T03:20:44.786Z,10.7
2018-06-22T03:21:46.150Z,10.7
2018-06-22T03:22:47.501Z,10.6
2018-06-22T03:23:48.866Z,10.7
2018-06-22T03:24:50.234Z,10.6
2018-06-22T03:25:51.582Z,10.5
2018-06-22T03:26:52.950Z,10.5
2018-06-22T03:27:54.306Z,10.5
2018-06-22T03:28:55.656Z,10.6
2018-06-22T03:29:57.018Z,10.5
2018-06-22T03:30:58.390Z,10.5
2018-06-22T03:31:59.802Z,10.6
2018-06-22T03:33:01.105Z,10.6
2018-06-22T03:34:02.467Z,10.4
2018-06-22T03:35:03.826Z,10.4
2018-06-22T03:36:05.175Z,10.4
2018-06-22T03:37:06.545Z,10.4
2018-06-22T03:38:07.897Z,10.4
2018-06-22T03:39:09.265Z,10.4
2018-06-22T03:40:10.622Z,10.4
2018-06-22T03:41:12.000Z,10.5
2018-06-22T03:42:13.348Z,10.4
2018-06-22T03:43:14.702Z,10.5
2018-06-22T03:44:16.060Z,10.3
2018-06-22T03:45:17.421Z,10.3
2018-06-22T03:46:18.787Z,10.5
2018-06-22T03:47:20.146Z,10.4
2018-06-22T03:48:21.506Z,10.4
2018-06-22T03:49:22.872Z,10.3
2018-06-22T03:50:24.232Z,10.4
2018-06-22T03:51:25.597Z,10.3
2018-06-22T03:52:27.127Z,10.4
2018-06-22T03:53:28.467Z,10.3
2018-06-22T03:54:29.828Z,10.3
2018-06-22T03:55:31.200Z,10.3
2018-06-22T03:56:32.558Z,10.3
2018-06-22T03:57:33.916Z,10.3
2018-06-22T03:58:35.281Z,10.2
2018-06-22T03:59:36.646Z,10.3
2018-06-22T04:00:38.001Z,10.3
2018-06-22T04:01:39.365Z,10.3
2018-06-22T04:02:40.738Z,10.2
2018-06-22T04:03:42.102Z,10.2
2018-06-22T04:04:43.461Z,10.1
2018-06-22T04:05:44.829Z,10.1
2018-06-22T04:06:46.181Z,10.2
2018-06-22T04:07:47.549Z,10.1
2018-06-22T04:08:48.903Z,10.1
2018-06-22T04:09:50.257Z,10.2
2018-06-22T04:10:51.625Z,10.1
2018-06-22T04:11:52.977Z,10.1
2018-06-22T04:12:54.346Z,10.2
2018-06-22T04:13:55.706Z,10.2
2018-06-22T04:14:57.088Z,10.1
2018-06-22T04:15:58.443Z,10.2
2018-06-22T04:16:59.807Z,10.2
2018-06-22T04:18:01.176Z,10.2
2018-06-22T04:19:02.556Z,10.2
2018-06-22T04:20:03.911Z,10.2
2018-06-22T04:21:05.383Z,10.1
2018-06-22T04:22:06.704Z,10.1
2018-06-22T04:23:08.071Z,10.1
2018-06-22T04:24:11.606Z,10.2
2018-06-22T04:25:12.960Z,10.2
2018-06-22T04:26:14.326Z,10.1
2018-06-22T04:27:15.681Z,10.1
2018-06-22T04:28:17.040Z,10.1
2018-06-22T04:29:18.396Z,10.2
2018-06-22T04:30:19.774Z,10.2
2018-06-22T04:31:21.142Z,10.3
2018-06-22T04:32:22.511Z,10.1
2018-06-22T04:33:23.868Z,10.1
2018-06-22T04:34:25.233Z,10.1
2018-06-22T04:35:26.604Z,10.2
2018-06-22T04:36:27.972Z,10.1
2018-06-22T04:37:29.337Z,10.2
2018-06-22T04:38:30.702Z,10.2
2018-06-22T04:39:32.058Z,10.2
2018-06-22T04:40:33.424Z,10.3
2018-06-22T04:41:34.797Z,10.3
2018-06-22T04:42:36.168Z,10.3
2018-06-22T04:43:37.547Z,10.3
2018-06-22T04:44:38.898Z,10.3
2018-06-22T04:45:40.273Z,10.3
2018-06-22T04:46:42.281Z,10.3
2018-06-22T04:47:43.716Z,10.4
2018-06-22T04:48:44.992Z,10.3
2018-06-22T04:49:46.362Z,10.3
2018-06-22T04:50:47.731Z,10.3
2018-06-22T04:51:49.906Z,10.3
2018-06-22T04:52:51.287Z,10.4
2018-06-22T04:53:52.679Z,10.4
2018-06-22T04:54:54.038Z,10.3
2018-06-22T04:55:55.401Z,10.3
2018-06-22T04:56:56.763Z,10.3
2018-06-22T04:57:58.130Z,10.4
2018-06-22T04:58:59.504Z,10.4
2018-06-22T05:00:00.868Z,10.4
2018-06-22T05:01:02.229Z,10.3
2018-06-22T05:02:03.594Z,10.4
2018-06-22T05:03:04.962Z,10.3
2018-06-22T05:04:06.317Z,10.3
2018-06-22T05:05:07.698Z,10.2
2018-06-22T05:06:09.064Z,10.3
2018-06-22T05:07:10.434Z,10.3
2018-06-22T05:08:11.922Z,10.3
2018-06-22T05:09:13.294Z,10.4
2018-06-22T05:10:14.659Z,10.4
2018-06-22T05:11:16.043Z,10.5
2018-06-22T05:12:17.415Z,10.5
2018-06-22T05:13:18.788Z,10.5
2018-06-22T05:14:20.179Z,10.6
2018-06-22T05:15:21.539Z,10.5
2018-06-22T05:16:22.920Z,10.5
2018-06-22T05:17:24.279Z,10.6
2018-06-22T05:18:25.654Z,10.8
2018-06-22T05:19:27.032Z,10.8
2018-06-22T05:20:28.413Z,10.9
2018-06-22T05:21:29.789Z,10.9
2018-06-22T05:22:31.154Z,10.9
2018-06-22T05:23:32.529Z,10.9
2018-06-22T05:24:33.883Z,11.0
2018-06-22T05:25:35.259Z,11.0
2018-06-22T05:26:36.680Z,11.0
2018-06-22T05:27:38.030Z,11.0
2018-06-22T05:28:39.399Z,11.1
2018-06-22T05:29:40.768Z,11.0
2018-06-22T05:30:42.144Z,11.0
2018-06-22T05:31:43.509Z,11.1
2018-06-22T05:32:44.870Z,11.1
2018-06-22T05:33:46.240Z,11.2
2018-06-22T05:34:47.613Z,11.2
2018-06-22T05:35:48.984Z,11.3
2018-06-22T05:36:50.348Z,11.5
2018-06-22T05:37:51.748Z,11.6
2018-06-22T05:38:53.112Z,11.8
2018-06-22T05:39:54.753Z,12.0
2018-06-22T05:40:56.118Z,12.1
2018-06-22T05:41:57.487Z,12.3
2018-06-22T05:42:58.857Z,12.5
2018-06-22T05:44:00.232Z,12.7
2018-06-22T05:45:01.605Z,12.9
2018-06-22T05:46:02.978Z,13.2
2018-06-22T05:47:04.349Z,13.5
2018-06-22T05:48:05.722Z,13.8
2018-06-22T05:49:07.099Z,13.9
2018-06-22T05:50:08.464Z,14.1
2018-06-22T05:51:09.837Z,14.2
2018-06-22T05:52:11.818Z,14.3
2018-06-22T05:53:13.198Z,14.2
2018-06-22T05:54:14.581Z,14.2
2018-06-22T05:55:15.954Z,14.3
2018-06-22T05:56:17.334Z,14.6
2018-06-22T05:57:18.714Z,14.7
2018-06-22T05:58:20.148Z,14.6
2018-06-22T05:59:21.547Z,14.8
2018-06-22T06:00:22.924Z,14.8
2018-06-22T06:01:24.309Z,14.7
2018-06-22T06:02:25.678Z,14.7
2018-06-22T06:03:27.111Z,14.8
2018-06-22T06:04:28.447Z,14.8
2018-06-22T06:05:29.814Z,14.7
2018-06-22T06:06:31.183Z,14.7
2018-06-22T06:07:32.564Z,14.7
2018-06-22T06:08:33.924Z,14.8
2018-06-22T06:09:35.318Z,15.0
2018-06-22T06:10:36.698Z,15.2
2018-06-22T06:11:38.102Z,15.3
2018-06-22T06:12:39.501Z,15.4
2018-06-22T06:13:40.833Z,15.4
2018-06-22T06:14:42.224Z,15.4
2018-06-22T06:15:43.609Z,15.5
2018-06-22T06:16:44.988Z,15.4
2018-06-22T06:17:46.358Z,15.4
2018-06-22T06:18:47.737Z,15.4
2018-06-22T06:19:49.130Z,15.3
2018-06-22T06:20:50.763Z,15.3
2018-06-22T06:21:52.153Z,15.3
2018-06-22T06:22:53.523Z,15.1
2018-06-22T06:23:54.958Z,14.9
2018-06-22T06:24:56.338Z,14.9
2018-06-22T06:25:57.724Z,14.8
2018-06-22T06:26:59.102Z,14.8
2018-06-22T06:28:00.468Z,14.7
2018-06-22T06:29:01.849Z,14.8
2018-06-22T06:30:03.225Z,14.6
2018-06-22T06:31:04.608Z,14.5
2018-06-22T06:32:06.000Z,14.5
2018-06-22T06:33:07.390Z,14.5
2018-06-22T06:34:08.778Z,14.5
2018-06-22T06:35:10.220Z,14.5
2018-06-22T06:36:11.560Z,14.5
2018-06-22T06:37:12.949Z,14.5
2018-06-22T06:38:14.318Z,14.4
2018-06-22T06:39:15.710Z,14.5
2018-06-22T06:40:17.080Z,14.6
2018-06-22T06:41:18.473Z,14.7
2018-06-22T06:42:19.855Z,14.8
2018-06-22T06:43:21.226Z,14.9
2018-06-22T06:44:22.614Z,15.2
2018-06-22T06:45:25.020Z,15.4
2018-06-22T06:46:26.439Z,15.6
2018-06-22T06:47:27.791Z,15.8
2018-06-22T06:48:29.161Z,15.7
2018-06-22T06:49:30.568Z,15.7
2018-06-22T06:50:31.915Z,15.8
2018-06-22T06:51:33.288Z,15.7
2018-06-22T06:52:34.706Z,15.7
2018-06-22T06:53:36.076Z,15.7
2018-06-22T06:54:37.471Z,15.8
2018-06-22T06:55:38.833Z,15.9
2018-06-22T06:56:40.212Z,15.8
2018-06-22T06:57:41.835Z,15.7
2018-06-22T06:58:43.225Z,16.0
2018-06-22T06:59:44.605Z,15.8
2018-06-22T07:00:45.987Z,15.9
2018-06-22T07:01:47.364Z,15.8
2018-06-22T07:02:48.734Z,15.7
2018-06-22T07:03:50.105Z,15.6
2018-06-22T07:04:51.490Z,15.4
2018-06-22T07:05:52.905Z,15.4
2018-06-22T07:06:54.319Z,15.4
2018-06-22T07:07:55.715Z,15.3
2018-06-22T07:08:57.085Z,15.2
2018-06-22T07:09:58.475Z,15.1
2018-06-22T07:10:59.847Z,15.1
2018-06-22T07:12:01.220Z,14.9
2018-06-22T07:13:02.595Z,14.9
2018-06-22T07:14:03.966Z,14.9
2018-06-22T07:15:05.342Z,14.8
2018-06-22T07:16:06.720Z,14.8
2018-06-22T07:17:08.093Z,14.8
2018-06-22T07:18:09.473Z,14.8
2018-06-22T07:19:10.846Z,14.9
2018-06-22T07:20:12.269Z,14.9
2018-06-22T07:21:13.662Z,15.0
2018-06-22T07:22:15.045Z,15.0
2018-06-22T07:23:16.415Z,15.0
2018-06-22T07:24:17.815Z,15.0
2018-06-22T07:25:19.309Z,15.0
2018-06-22T07:26:20.686Z,15.1
2018-06-22T07:27:22.092Z,14.9
2018-06-22T07:28:23.455Z,15.0
2018-06-22T07:29:24.831Z,14.9
2018-06-22T07:30:26.195Z,15.0
2018-06-22T07:31:27.581Z,15.1
2018-06-22T07:32:28.966Z,15.1
2018-06-22T07:33:30.324Z,15.2
2018-06-22T07:34:31.708Z,15.2
2018-06-22T07:35:33.071Z,15.3
2018-06-22T07:36:35.102Z,15.3
2018-06-22T07:37:36.477Z,15.2
2018-06-22T07:38:37.845Z,15.1
2018-06-22T07:39:39.253Z,15.2
2018-06-22T07:40:40.627Z,15.4
2018-06-22T07:41:41.991Z,15.4
2018-06-22T07:42:43.377Z,15.5
2018-06-22T07:43:44.749Z,15.6
2018-06-22T07:44:46.125Z,15.7
2018-06-22T07:45:47.501Z,15.9
2018-06-22T07:46:48.874Z,16.0
2018-06-22T07:47:50.256Z,15.9
2018-06-22T07:48:56.713Z,15.8
2018-06-22T07:49:58.363Z,15.9
2018-06-22T07:50:59.736Z,15.9
2018-06-22T07:52:01.121Z,15.8
2018-06-22T07:53:02.497Z,15.8
2018-06-22T07:54:03.875Z,15.7
2018-06-22T07:55:05.309Z,15.7
2018-06-22T07:56:06.662Z,15.7
2018-06-22T07:57:08.084Z,15.8
2018-06-22T07:58:09.425Z,15.9
2018-06-22T07:59:10.797Z,16.1
2018-06-22T08:00:12.161Z,16.2
2018-06-22T08:01:13.538Z,16.2
2018-06-22T08:02:14.921Z,16.2
2018-06-22T08:03:16.293Z,16.1
2018-06-22T08:04:17.678Z,16.2
2018-06-22T08:05:19.055Z,16.2
2018-06-22T08:06:20.448Z,16.1
2018-06-22T08:07:21.806Z,16.1
2018-06-22T08:08:23.212Z,16.2
2018-06-22T08:09:24.596Z,16.2
2018-06-22T08:10:25.967Z,16.2
2018-06-22T08:11:27.343Z,16.1
2018-06-22T08:12:28.727Z,16.1
2018-06-22T08:13:30.092Z,16.1
2018-06-22T08:14:31.473Z,16.1
2018-06-22T08:15:32.856Z,16.0
2018-06-22T08:16:34.228Z,16.2
2018-06-22T08:17:35.663Z,16.1
2018-06-22T08:18:37.033Z,16.0
2018-06-22T08:19:38.381Z,16.0
2018-06-22T08:20:39.833Z,15.9
2018-06-22T08:21:41.201Z,15.9
2018-06-22T08:22:42.581Z,16.0
2018-06-22T08:23:43.966Z,16.1
2018-06-22T08:24:45.343Z,16.3
2018-06-22T08:25:46.713Z,16.5
2018-06-22T08:26:48.100Z,16.7
2018-06-22T08:27:50.382Z,16.9
2018-06-22T08:28:51.760Z,17.1
2018-06-22T08:29:53.156Z,17.2
2018-06-22T08:30:54.526Z,17.0
2018-06-22T08:31:55.925Z,16.7
2018-06-22T08:32:57.304Z,16.6
2018-06-22T08:33:58.672Z,16.5
2018-06-22T08:35:00.109Z,16.4
2018-06-22T08:36:01.442Z,16.4
2018-06-22T08:37:02.815Z,16.4
2018-06-22T08:38:04.217Z,16.4
2018-06-22T08:39:05.597Z,16.4
2018-06-22T08:40:06.981Z,16.3
2018-06-22T08:41:08.374Z,16.3
2018-06-22T08:42:09.831Z,16.3
2018-06-22T08:43:11.152Z,16.1
2018-06-22T08:44:13.700Z,16.2
2018-06-22T08:45:15.077Z,16.0
2018-06-22T08:46:16.831Z,16.0
2018-06-22T08:47:18.212Z,16.0
2018-06-22T08:48:19.856Z,16.1
2018-06-22T08:49:21.250Z,16.0
2018-06-22T08:50:22.621Z,16.0
2018-06-22T08:51:24.007Z,16.1
2018-06-22T08:52:25.391Z,16.2
2018-06-22T08:53:26.778Z,16.3
2018-06-22T08:54:28.146Z,16.5
2018-06-22T08:55:29.532Z,16.6
2018-06-22T08:56:30.931Z,16.7
2018-06-22T08:57:32.304Z,16.8
2018-06-22T08:58:33.687Z,16.8
2018-06-22T08:59:35.073Z,16.8
2018-06-22T09:00:36.462Z,16.8
2018-06-22T09:01:37.846Z,16.7
2018-06-22T09:02:39.228Z,16.6
2018-06-22T09:03:40.609Z,16.6
2018-06-22T09:04:41.991Z,16.6
2018-06-22T09:05:43.363Z,16.6
2018-06-22T09:06:44.747Z,16.5
2018-06-22T09:07:46.171Z,16.5
2018-06-22T09:08:47.557Z,16.4
2018-06-22T09:09:48.938Z,16.5
2018-06-22T09:10:50.327Z,16.4
2018-06-22T09:11:51.711Z,16.3
2018-06-22T09:12:53.111Z,16.1
2018-06-22T09:13:54.491Z,16.1
2018-06-22T09:14:55.873Z,16.1
2018-06-22T09:15:57.297Z,16.1
2018-06-22T09:16:58.663Z,16.0
2018-06-22T09:18:00.121Z,16.1
2018-06-22T09:19:01.561Z,16.1
2018-06-22T09:20:02.934Z,16.1
2018-06-22T09:21:04.396Z,16.1
2018-06-22T09:22:05.786Z,16.0
2018-06-22T09:23:07.162Z,16.1
2018-06-22T09:24:08.541Z,16.1
2018-06-22T09:25:09.932Z,16.0
2018-06-22T09:26:11.307Z,16.1
2018-06-22T09:27:12.706Z,16.0
2018-06-22T09:28:14.069Z,16.0
2018-06-22T09:29:15.453Z,16.1
2018-06-22T09:30:16.825Z,16.1
2018-06-22T09:31:18.223Z,16.1
2018-06-22T09:32:19.618Z,16.1
2018-06-22T09:33:21.028Z,16.0
2018-06-22T09:34:22.463Z,16.1
2018-06-22T09:35:23.843Z,16.1
2018-06-22T09:36:25.216Z,16.1
2018-06-22T09:37:26.597Z,16.1
2018-06-22T09:38:27.977Z,16.2
2018-06-22T09:39:29.368Z,16.3
2018-06-22T09:40:30.753Z,16.3
2018-06-22T09:41:32.123Z,16.4
2018-06-22T09:42:33.604Z,16.5
2018-06-22T09:43:34.915Z,16.5
2018-06-22T09:44:36.288Z,16.6
2018-06-22T09:45:37.674Z,16.7
2018-06-22T09:46:39.052Z,16.9
2018-06-22T09:47:40.426Z,17.0
2018-06-22T09:48:41.821Z,17.0
2018-06-22T09:49:43.193Z,17.2
2018-06-22T09:50:44.566Z,17.1
2018-06-22T09:51:45.949Z,17.3
2018-06-22T09:52:47.343Z,17.2
2018-06-22T09:53:48.741Z,17.3
2018-06-22T09:54:50.168Z,17.3
2018-06-22T09:55:51.564Z,17.4
2018-06-22T09:56:52.962Z,17.4
2018-06-22T09:57:54.339Z,17.4
2018-06-22T09:58:55.711Z,17.3
2018-06-22T09:59:57.087Z,17.2
2018-06-22T10:00:58.509Z,17.2
2018-06-22T10:01:59.930Z,17.2
2018-06-22T10:03:01.316Z,17.2
2018-06-22T10:04:02.708Z,17.1
2018-06-22T10:05:04.081Z,17.0
2018-06-22T10:06:05.442Z,17.1
2018-06-22T10:07:06.824Z,17.0
2018-06-22T10:08:08.267Z,17.1
2018-06-22T10:09:09.616Z,17.0
2018-06-22T10:10:12.147Z,17.0
2018-06-22T10:11:13.788Z,17.0
2018-06-22T10:12:15.127Z,17.0
2018-06-22T10:13:16.527Z,17.0
2018-06-22T10:14:17.917Z,17.1
2018-06-22T10:15:19.367Z,17.1
2018-06-22T10:16:20.751Z,17.1
2018-06-22T10:17:22.148Z,17.2
2018-06-22T10:18:23.530Z,17.2
2018-06-22T10:19:24.907Z,17.3
2018-06-22T10:20:26.286Z,17.1
2018-06-22T10:21:27.665Z,17.3
2018-06-22T10:22:29.044Z,17.5
2018-06-22T10:23:30.445Z,17.5
2018-06-22T10:24:31.811Z,17.6
2018-06-22T10:25:33.187Z,17.6
2018-06-22T10:26:34.562Z,17.6
2018-06-22T10:27:35.943Z,17.6
2018-06-22T10:28:37.334Z,17.5
2018-06-22T10:29:38.708Z,17.5
2018-06-22T10:30:40.089Z,17.4
2018-06-22T10:31:41.481Z,17.4
2018-06-22T10:32:42.862Z,17.2
2018-06-22T10:33:44.245Z,17.3
2018-06-22T10:34:45.647Z,17.2
2018-06-22T10:35:47.028Z,17.3
2018-06-22T10:36:48.438Z,17.2
2018-06-22T10:37:50.556Z,17.3
2018-06-22T10:38:51.989Z,17.3
2018-06-22T10:39:53.364Z,17.2
2018-06-22T10:40:54.738Z,17.2
2018-06-22T10:41:56.122Z,17.2
2018-06-22T10:42:57.513Z,17.2
2018-06-22T10:43:58.912Z,17.2
2018-06-22T10:45:00.286Z,17.3
2018-06-22T10:46:01.695Z,17.2
2018-06-22T10:47:03.026Z,17.2
2018-06-22T10:48:04.419Z,17.3
2018-06-22T10:49:05.792Z,17.4
2018-06-22T10:50:07.182Z,17.4
2018-06-22T10:51:08.578Z,17.4
2018-06-22T10:52:09.960Z,17.5
2018-06-22T10:53:11.349Z,17.6
2018-06-22T10:54:12.724Z,17.7
2018-06-22T10:55:14.114Z,17.8
2018-06-22T10:56:15.498Z,17.9
2018-06-22T10:57:16.892Z,18.0
2018-06-22T10:58:18.277Z,18.2
2018-06-22T10:59:19.734Z,18.3
2018-06-22T11:00:21.258Z,18.4
2018-06-22T11:01:22.632Z,18.5
2018-06-22T11:02:24.012Z,18.6
2018-06-22T11:03:25.395Z,18.7
2018-06-22T11:04:26.778Z,18.7
2018-06-22T11:05:28.157Z,18.9
2018-06-22T11:06:29.533Z,18.9
2018-06-22T11:07:30.927Z,18.8
2018-06-22T11:08:32.317Z,18.7
2018-06-22T11:09:33.694Z,18.6
2018-06-22T11:10:35.089Z,18.6
2018-06-22T11:11:36.463Z,18.6
2018-06-22T11:12:37.847Z,18.6
2018-06-22T11:13:39.227Z,18.7
2018-06-22T11:14:40.605Z,18.6
2018-06-22T11:15:41.998Z,18.5
2018-06-22T11:16:43.547Z,18.5
2018-06-22T11:17:44.878Z,18.3
2018-06-22T11:18:46.253Z,18.2
2018-06-22T11:19:47.627Z,18.2
2018-06-22T11:20:49.007Z,18.2
2018-06-22T11:21:50.393Z,18.3
2018-06-22T11:22:51.802Z,18.3
2018-06-22T11:23:53.213Z,18.4
2018-06-22T11:24:54.622Z,18.4
2018-06-22T11:25:55.987Z,18.4
2018-06-22T11:26:57.364Z,18.4
2018-06-22T11:27:58.738Z,18.3
2018-06-22T11:29:00.110Z,18.3
2018-06-22T11:30:01.499Z,18.1
2018-06-22T11:31:02.918Z,18.1
2018-06-22T11:32:04.307Z,18.1
2018-06-22T11:33:05.687Z,18.2
2018-06-22T11:34:07.064Z,18.0
2018-06-22T11:35:08.463Z,18.1
2018-06-22T11:36:09.895Z,18.1
2018-06-22T11:37:11.280Z,18.2
2018-06-22T11:38:12.673Z,18.2
2018-06-22T11:39:14.085Z,18.1
2018-06-22T11:40:15.477Z,18.1
2018-06-22T11:41:16.874Z,18.1
2018-06-22T11:42:18.227Z,18.2
2018-06-22T11:43:19.612Z,18.2
2018-06-22T11:44:20.994Z,18.2
2018-06-22T11:45:22.609Z,18.2
2018-06-22T11:46:23.964Z,18.2
2018-06-22T11:47:25.338Z,18.3
2018-06-22T11:48:26.814Z,18.3
2018-06-22T11:49:28.190Z,18.3
2018-06-22T11:50:29.557Z,18.2
2018-06-22T11:51:30.952Z,18.3
2018-06-22T11:52:32.353Z,18.2
2018-06-22T11:53:33.725Z,18.2
2018-06-22T11:54:35.095Z,18.3
2018-06-22T11:55:36.486Z,18.2
2018-06-22T11:56:37.871Z,18.3
2018-06-22T11:57:39.273Z,18.3
2018-06-22T11:58:40.655Z,18.3
2018-06-22T11:59:42.040Z,18.3
2018-06-22T12:00:43.419Z,18.1
2018-06-22T12:01:44.811Z,18.0
2018-06-22T12:02:46.174Z,18.0
2018-06-22T12:03:47.543Z,17.9
2018-06-22T12:04:48.997Z,18.0
2018-06-22T12:05:50.358Z,18.1
2018-06-22T12:06:51.730Z,18.3
2018-06-22T12:07:53.174Z,18.3
2018-06-22T12:08:54.549Z,18.6
2018-06-22T12:09:55.943Z,18.7
2018-06-22T12:10:57.319Z,18.8
2018-06-22T12:11:58.709Z,18.8
2018-06-22T12:13:00.101Z,18.8
2018-06-22T12:14:01.485Z,18.8
2018-06-22T12:15:02.876Z,18.7
2018-06-22T12:16:04.264Z,18.7
2018-06-22T12:17:05.645Z,18.6
2018-06-22T12:18:07.048Z,18.6
2018-06-22T12:19:08.515Z,18.5
2018-06-22T12:20:09.770Z,18.6
2018-06-22T12:21:11.150Z,18.6
2018-06-22T12:22:12.524Z,18.6
2018-06-22T12:23:13.915Z,18.5
2018-06-22T12:24:15.313Z,18.5
2018-06-22T12:25:16.684Z,18.6
2018-06-22T12:26:18.101Z,18.6
2018-06-22T12:27:19.506Z,18.7
2018-06-22T12:28:20.899Z,18.7
2018-06-22T12:29:22.292Z,18.8
2018-06-22T12:30:23.686Z,18.8
2018-06-22T12:31:25.069Z,18.8
2018-06-22T12:32:26.455Z,18.9
2018-06-22T12:33:27.840Z,18.7
2018-06-22T12:34:29.234Z,18.7
2018-06-22T12:35:30.616Z,18.7
2018-06-22T12:36:32.002Z,18.8
2018-06-22T12:37:33.395Z,18.9
2018-06-22T12:38:34.833Z,18.9
2018-06-22T12:39:36.220Z,19.0
2018-06-22T12:40:37.539Z,19.0
2018-06-22T12:41:38.928Z,19.0
2018-06-22T12:42:40.299Z,19.1
2018-06-22T12:43:41.688Z,19.2
2018-06-22T12:44:43.069Z,19.2
2018-06-22T12:45:44.477Z,19.4
2018-06-22T12:46:45.859Z,19.4
2018-06-22T12:47:47.268Z,19.6
2018-06-22T12:48:48.687Z,19.7
2018-06-22T12:49:50.909Z,19.9
2018-06-22T12:50:52.335Z,19.9
2018-06-22T12:51:53.740Z,19.8
2018-06-22T12:52:55.131Z,19.6
2018-06-22T12:53:56.515Z,19.5
2018-06-22T12:54:57.914Z,19.2
2018-06-22T12:55:59.311Z,19.3
2018-06-22T12:57:00.689Z,19.2
2018-06-22T12:58:02.085Z,19.1
2018-06-22T12:59:03.526Z,19.1
2018-06-22T13:00:04.916Z,19.1
2018-06-22T13:01:06.307Z,19.1
2018-06-22T13:02:07.688Z,19.1
2018-06-22T13:03:09.109Z,19.1
2018-06-22T13:04:10.521Z,19.0
2018-06-22T13:05:11.901Z,19.0
2018-06-22T13:06:13.282Z,19.0
2018-06-22T13:07:14.683Z,19.0
2018-06-22T13:08:16.108Z,19.0
2018-06-22T13:09:17.549Z,19.1
2018-06-22T13:10:18.883Z,19.2
2018-06-22T13:11:20.256Z,19.3
2018-06-22T13:12:21.645Z,19.4
2018-06-22T13:13:23.034Z,19.2
2018-06-22T13:14:24.426Z,19.2
2018-06-22T13:15:25.801Z,19.2
2018-06-22T13:16:27.189Z,19.1
2018-06-22T13:17:28.581Z,19.2
2018-06-22T13:18:29.962Z,19.1
2018-06-22T13:19:31.350Z,19.1
2018-06-22T13:20:32.741Z,19.2
2018-06-22T13:21:34.116Z,19.1
2018-06-22T13:22:35.498Z,19.2
2018-06-22T13:23:36.898Z,19.2
2018-06-22T13:24:38.290Z,19.2
2018-06-22T13:25:39.669Z,19.2
2018-06-22T13:26:41.045Z,19.2
2018-06-22T13:27:42.447Z,19.2
2018-06-22T13:28:43.843Z,19.2
2018-06-22T13:29:45.221Z,19.2
2018-06-22T13:30:46.594Z,19.4
2018-06-22T13:31:47.975Z,19.4
2018-06-22T13:32:49.410Z,19.4
2018-06-22T13:33:50.872Z,19.6
2018-06-22T13:34:52.271Z,19.6
2018-06-22T13:35:53.668Z,19.6
2018-06-22T13:36:55.079Z,19.7